createdAt,value
2023-03-02T00:00:55.406Z,102870
2023-03-02T00:05:55.407Z,102870
2023-03-02T00:10:55.464Z,102870
2023-03-02T00:15:55.573Z,102870
2023-03-02T00:20:55.422Z,102860
2023-03-02T00:25:55.429Z,102850
2023-03-02T00:30:55.441Z,102850
2023-03-02T00:35:55.426Z,102840
2023-03-02T00:40:55.500Z,102850
2023-03-02T00:45:55.725Z,102850
2023-03-02T00:50:55.430Z,102840
2023-03-02T00:55:55.429Z,102830
2023-03-02T01:00:55.447Z,102830
2023-03-02T01:05:55.440Z,102830
2023-03-02T01:10:55.653Z,102840
2023-03-02T01:15:55.749Z,102830
2023-03-02T01:20:55.449Z,102830
2023-03-02T01:25:55.448Z,102820
2023-03-02T01:30:55.462Z,102820
2023-03-02T01:35:55.488Z,102810
2023-03-02T01:40:55.685Z,102810
2023-03-02T01:45:55.689Z,102810
2023-03-02T01:50:55.481Z,102820
2023-03-02T01:55:55.461Z,102810
2023-03-02T02:00:55.513Z,102810
2023-03-02T02:05:55.471Z,102820
2023-03-02T02:10:55.666Z,102810
2023-03-02T02:15:55.567Z,102810
2023-03-02T02:20:55.496Z,102820
2023-03-02T02:25:55.571Z,102820
2023-03-02T02:30:55.485Z,102810
2023-03-02T02:35:55.539Z,102810
2023-03-02T02:40:55.503Z,102810
2023-03-02T02:45:55.645Z,102810
2023-03-02T02:50:55.490Z,102800
2023-03-02T02:55:55.512Z,102790
2023-03-02T03:00:55.573Z,102790
2023-03-02T03:05:55.524Z,102790
2023-03-02T03:10:55.562Z,102790
2023-03-02T03:15:55.582Z,102790
2023-03-02T03:20:55.514Z,102790
2023-03-02T03:25:55.508Z,102790
2023-03-02T03:30:55.584Z,102790
2023-03-02T03:35:55.546Z,102790
2023-03-02T03:40:55.566Z,102800
2023-03-02T03:45:55.627Z,102790
2023-03-02T03:50:55.529Z,102790
2023-03-02T03:55:55.519Z,102790
2023-03-02T04:00:55.523Z,102790
2023-03-02T04:05:55.528Z,102790
2023-03-02T04:10:55.538Z,102790
2023-03-02T04:15:55.591Z,102790
2023-03-02T04:20:55.536Z,102790
2023-03-02T04:25:55.538Z,102780
2023-03-02T04:30:55.581Z,102790
2023-03-02T04:35:55.586Z,102780
2023-03-02T04:40:55.563Z,102790
2023-03-02T04:45:55.591Z,102790
2023-03-02T04:50:55.561Z,102790
2023-03-02T04:55:55.570Z,102790
2023-03-02T05:00:55.565Z,102790
2023-03-02T05:05:55.576Z,102790
2023-03-02T05:10:55.610Z,102780
2023-03-02T05:15:55.603Z,102780
2023-03-02T05:20:55.576Z,102800
2023-03-02T05:25:55.571Z,102790
2023-03-02T05:30:55.589Z,102790
2023-03-02T05:35:55.659Z,102790
2023-03-02T05:40:55.592Z,102790
2023-03-02T05:45:55.607Z,102790
2023-03-02T05:50:55.592Z,102790
2023-03-02T05:55:55.593Z,102790
2023-03-02T06:00:55.592Z,102780
2023-03-02T06:05:55.605Z,102790
2023-03-02T06:10:55.617Z,102790
2023-03-02T06:15:55.620Z,102800
2023-03-02T06:20:55.614Z,102800
2023-03-02T06:25:55.631Z,102790
2023-03-02T06:30:55.611Z,102780
2023-03-02T06:35:55.821Z,102800
2023-03-02T06:40:55.682Z,102800
2023-03-02T06:45:55.689Z,102800
2023-03-02T06:50:55.620Z,102810
2023-03-02T06:55:55.620Z,102820
2023-03-02T07:00:55.743Z,102820
2023-03-02T07:05:55.631Z,102820
2023-03-02T07:10:55.636Z,102830
2023-03-02T07:15:55.646Z,102820
2023-03-02T07:20:55.637Z,102820
2023-03-02T07:25:55.653Z,102820
2023-03-02T07:30:55.700Z,102820
2023-03-02T07:35:55.709Z,102820
2023-03-02T07:40:55.654Z,102820
2023-03-02T07:45:56.129Z,102820
2023-03-02T07:50:55.653Z,102810
2023-03-02T07:55:55.650Z,102810
2023-03-02T08:00:55.670Z,102810
2023-03-02T08:05:55.666Z,102810
2023-03-02T08:10:55.672Z,102810
2023-03-02T08:15:55.727Z,102810
2023-03-02T08:20:55.672Z,102810
2023-03-02T08:25:55.696Z,102810
2023-03-02T08:30:55.670Z,102820
2023-03-02T08:35:55.703Z,102820
2023-03-02T08:40:55.749Z,102820
2023-03-02T08:45:55.829Z,102810
2023-03-02T08:50:55.679Z,102810
2023-03-02T08:55:55.706Z,102810
2023-03-02T09:00:55.730Z,102810
2023-03-02T09:05:55.697Z,102810
2023-03-02T09:10:55.714Z,102810
2023-03-02T09:15:55.728Z,102800
2023-03-02T09:20:55.699Z,102800
2023-03-02T09:25:55.701Z,102800
2023-03-02T09:30:55.704Z,102800
2023-03-02T09:35:55.721Z,102800
2023-03-02T09:40:55.719Z,102800
2023-03-02T09:45:55.755Z,102790
2023-03-02T09:50:55.716Z,102790
2023-03-02T09:55:55.712Z,102800
2023-03-02T10:00:55.720Z,102790
2023-03-02T10:05:55.732Z,102800
2023-03-02T10:10:55.767Z,102800
2023-03-02T10:15:55.780Z,102790
2023-03-02T10:20:55.770Z,102800
2023-03-02T10:25:55.741Z,102790
2023-03-02T10:30:55.848Z,102790
2023-03-02T10:35:55.848Z,102790
2023-03-02T10:40:55.793Z,102790
2023-03-02T10:45:55.789Z,102790
2023-03-02T10:50:55.745Z,102780
2023-03-02T10:55:55.762Z,102780
2023-03-02T11:00:55.884Z,102780
2023-03-02T11:05:55.766Z,102790
2023-03-02T11:10:59.759Z,102780
2023-03-02T11:15:55.879Z,102780
2023-03-02T11:20:55.763Z,102770
2023-03-02T11:25:55.767Z,102760
2023-03-02T11:30:55.806Z,102760
2023-03-02T11:35:55.840Z,102750
2023-03-02T11:40:55.788Z,102750
2023-03-02T11:45:55.802Z,102740
2023-03-02T11:50:55.789Z,102740
2023-03-02T11:55:55.785Z,102730
2023-03-02T12:00:55.799Z,102720
2023-03-02T12:05:55.791Z,102710
2023-03-02T12:10:55.798Z,102700
2023-03-02T12:15:55.807Z,102690
2023-03-02T12:20:55.803Z,102690
2023-03-02T12:25:55.805Z,102680
2023-03-02T12:30:55.802Z,102680
2023-03-02T12:35:55.817Z,102670
2023-03-02T12:40:55.818Z,102660
2023-03-02T12:45:55.862Z,102660
2023-03-02T12:50:55.813Z,102640
2023-03-02T12:55:55.849Z,102650
2023-03-02T13:00:55.938Z,102640
2023-03-02T13:05:55.823Z,102640
2023-03-02T13:10:55.852Z,102620
2023-03-02T13:15:55.856Z,102620
2023-03-02T13:20:55.827Z,102630
2023-03-02T13:25:55.828Z,102610
2023-03-02T13:30:55.943Z,102610
2023-03-02T13:35:55.849Z,102600
2023-03-02T13:40:55.856Z,102600
2023-03-02T13:45:55.927Z,102600
2023-03-02T13:50:55.895Z,102600
2023-03-02T13:55:55.848Z,102600
2023-03-02T14:00:55.851Z,102600
2023-03-02T14:05:55.855Z,102590
2023-03-02T14:10:55.868Z,102590
2023-03-02T14:15:56.022Z,102590
2023-03-02T14:20:55.876Z,102580
2023-03-02T14:25:55.864Z,102590
2023-03-02T14:30:55.907Z,102580
2023-03-02T14:35:55.944Z,102570
2023-03-02T14:40:55.900Z,102580
2023-03-02T14:45:55.897Z,102560
2023-03-02T14:50:55.878Z,102580
2023-03-02T14:55:55.895Z,102560
2023-03-02T15:00:55.890Z,102560
2023-03-02T15:06:01.367Z,102550
2023-03-02T15:10:55.956Z,102560
2023-03-02T15:15:55.957Z,102550
2023-03-02T15:20:55.906Z,102540
2023-03-02T15:25:55.903Z,102540
2023-03-02T15:30:55.910Z,102550
2023-03-02T15:35:55.976Z,102540
2023-03-02T15:40:55.934Z,102540
2023-03-02T15:45:55.926Z,102540
2023-03-02T15:50:55.928Z,102540
2023-03-02T15:55:55.913Z,102540
2023-03-02T16:00:56.050Z,102540
2023-03-02T16:05:55.926Z,102550
2023-03-02T16:10:55.972Z,102560
2023-03-02T16:15:56.001Z,102580
2023-03-02T16:20:55.941Z,102570
2023-03-02T16:25:55.942Z,102570
2023-03-02T16:30:55.955Z,102580
2023-03-02T16:35:55.945Z,102570
2023-03-02T16:40:57.114Z,102580
2023-03-02T16:45:56.013Z,102590
2023-03-02T16:50:55.958Z,102600
2023-03-02T16:55:55.956Z,102610
2023-03-02T17:00:56.164Z,102610
2023-03-02T17:05:55.962Z,102620
2023-03-02T17:10:55.999Z,102620
2023-03-02T17:15:56.024Z,102630
2023-03-02T17:20:55.989Z,102630
2023-03-02T17:25:56.030Z,102640
2023-03-02T17:30:56.049Z,102650
2023-03-02T17:35:55.983Z,102660
2023-03-02T17:40:55.989Z,102660
2023-03-02T17:45:56.082Z,102660
2023-03-02T17:50:55.985Z,102670
2023-03-02T17:55:56.012Z,102680
2023-03-02T18:00:55.993Z,102680
2023-03-02T18:05:55.988Z,102690
2023-03-02T18:10:56.081Z,102700
2023-03-02T18:15:56.110Z,102700
2023-03-02T18:20:56.015Z,102700
2023-03-02T18:25:56.005Z,102700
2023-03-02T18:30:56.041Z,102710
2023-03-02T18:35:56.002Z,102710
2023-03-02T18:40:56.017Z,102720
2023-03-02T18:45:56.035Z,102720
2023-03-02T18:50:56.036Z,102710
2023-03-02T18:55:56.047Z,102720
2023-03-02T19:00:56.156Z,102720
2023-03-02T19:05:58.121Z,102720
2023-03-02T19:10:56.039Z,102720
2023-03-02T19:15:56.154Z,102730
2023-03-02T19:20:56.039Z,102730
2023-03-02T19:25:56.039Z,102730
2023-03-02T19:30:56.041Z,102740
2023-03-02T19:35:56.073Z,102740
2023-03-02T19:40:56.099Z,102750
2023-03-02T19:45:56.111Z,102750
2023-03-02T19:50:56.054Z,102740
2023-03-02T19:55:56.055Z,102750
2023-03-02T20:00:56.109Z,102750
2023-03-02T20:05:56.054Z,102760
2023-03-02T20:10:56.064Z,102760
2023-03-02T20:15:56.083Z,102750
2023-03-02T20:20:56.071Z,102750
2023-03-02T20:25:56.063Z,102760
2023-03-02T20:30:56.205Z,102760
2023-03-02T20:35:56.109Z,102750
2023-03-02T20:40:56.102Z,102750
2023-03-02T20:45:56.173Z,102750
2023-03-02T20:50:56.075Z,102750
2023-03-02T20:55:56.084Z,102760
2023-03-02T21:00:56.092Z,102760
2023-03-02T21:05:56.106Z,102760
2023-03-02T21:10:56.157Z,102770
2023-03-02T21:15:56.157Z,102770
2023-03-02T21:20:56.118Z,102770
2023-03-02T21:25:56.104Z,102770
2023-03-02T21:30:56.208Z,102760
2023-03-02T21:35:56.108Z,102770
2023-03-02T21:40:56.163Z,102760
2023-03-02T21:45:56.113Z,102760
2023-03-02T21:50:56.185Z,102760
2023-03-02T21:55:56.118Z,102750
2023-03-02T22:00:56.121Z,102750
2023-03-02T22:05:56.127Z,102760
2023-03-02T22:10:56.142Z,102760
2023-03-02T22:15:56.174Z,102760
2023-03-02T22:20:56.173Z,102760
2023-03-02T22:25:56.140Z,102760
2023-03-02T22:30:56.138Z,102750
2023-03-02T22:35:56.211Z,102760
2023-03-02T22:40:56.207Z,102760
2023-03-02T22:45:56.149Z,102760
2023-03-02T22:50:56.169Z,102760
2023-03-02T22:55:56.156Z,102770
2023-03-02T23:00:56.227Z,102780
2023-03-02T23:05:56.270Z,102780
2023-03-02T23:10:56.263Z,102780
2023-03-02T23:15:56.167Z,102790
2023-03-02T23:20:56.245Z,102790
2023-03-02T23:25:56.182Z,102780
2023-03-02T23:30:56.171Z,102790
2023-03-02T23:35:56.194Z,102790
2023-03-02T23:40:56.181Z,102790
2023-03-02T23:45:56.260Z,102790
2023-03-02T23:50:56.250Z,102790
2023-03-02T23:55:56.177Z,102790
